VOML/IXE METAR and TAF weather

Enter ICAO airport designator
Station Type Date Time Source
VOML METAR 2019/12/16 03:30 UTC NOAA

VOML 160330Z 10005KT 8000 NSC 25/20 Q1012 NOSIG


Station Type Date Time Source
VOML Decoded METAR 2019/12/16 03:30 UTC NOAA

Mangalore / Bajpe, India (VOML) 12-55N 074-53E 102M
Dec 15, 2019 - 10:30 PM EST / 2019.12.16 0330 UTC
Wind: from the E (100 degrees) at 6 MPH (5 KT):0
Visibility: 4 mile(s):0
Temperature: 77 F (25 C)
Dew Point: 68 F (20 C)
Relative Humidity: 73%
Pressure (altimeter): 29.88 in. Hg (1012 hPa)
ob: VOML 160330Z 10005KT 8000 NSC 25/20 Q1012 NOSIG
cycle: 3

Station Type Date Time Source
VOML TAF 2019/12/15 18:00 UTC NOAA

TAF VOML 151700Z 1518/1624 29010KT 6000 SCT015 SCT080
BECMG 1520/1521 09005KT 4000 BR SCT006
TEMPO 1600/1603 2000 BR SCT004 SCT012
BECMG 1604/1605 6000 FEW015
BECMG 1609/1610 27010KT
BECMG 1620/1621 09005KT 4000 BR SCT008

Example: see airport list